sensor_id;sensor_type;location;lat;lon;timestamp;temperature;humidity
6556;DHT22;3311;48.32423000;14.29074500;2023-07-31T00:01:24;22.40;81.90
6556;DHT22;3311;48.32423000;14.29074500;2023-07-31T00:03:52;22.30;82.00
6556;DHT22;3311;48.32423000;14.29074500;2023-07-31T00:06:20;22.40;81.90
6556;DHT22;3311;48.32423000;14.29074500;2023-07-31T00:08:47;22.30;81.90
6556;DHT22;3311;48.32423000;14.29074500;2023-07-31T00:11:15;22.20;81.50
6556;DHT22;3311;48.32423000;14.29074500;2023-07-31T00:13:42;22.10;81.90
6556;DHT22;3311;48.32423000;14.29074500;2023-07-31T00:16:09;22.20;81.80
6556;DHT22;3311;48.32423000;14.29074500;2023-07-31T00:18:37;22.20;81.60
6556;DHT22;3311;48.32423000;14.29074500;2023-07-31T00:21:04;22.20;81.00
6556;DHT22;3311;48.32423000;14.29074500;2023-07-31T00:23:32;22.10;81.30
6556;DHT22;3311;48.32423000;14.29074500;2023-07-31T00:26:00;22.10;80.80
6556;DHT22;3311;48.32423000;14.29074500;2023-07-31T00:28:27;22.20;80.80
6556;DHT22;3311;48.32423000;14.29074500;2023-07-31T00:30:55;22.10;80.50
6556;DHT22;3311;48.32423000;14.29074500;2023-07-31T00:33:23;22.10;80.40
6556;DHT22;3311;48.32423000;14.29074500;2023-07-31T00:35:50;22.10;80.20
6556;DHT22;3311;48.32423000;14.29074500;2023-07-31T00:38:17;22.10;80.20
6556;DHT22;3311;48.32423000;14.29074500;2023-07-31T00:40:46;22.10;79.90
6556;DHT22;3311;48.32423000;14.29074500;2023-07-31T00:43:13;22.10;79.80
6556;DHT22;3311;48.32423000;14.29074500;2023-07-31T00:45:41;22.10;79.70
6556;DHT22;3311;48.32423000;14.29074500;2023-07-31T00:48:08;22.10;79.50
6556;DHT22;3311;48.32423000;14.29074500;2023-07-31T00:50:35;22.10;79.50
6556;DHT22;3311;48.32423000;14.29074500;2023-07-31T00:53:03;22.10;79.10
6556;DHT22;3311;48.32423000;14.29074500;2023-07-31T00:55:30;22.10;78.80
6556;DHT22;3311;48.32423000;14.29074500;2023-07-31T00:57:59;22.10;78.90
6556;DHT22;3311;48.32423000;14.29074500;2023-07-31T01:00:27;22.00;79.00
6556;DHT22;3311;48.32423000;14.29074500;2023-07-31T01:02:54;22.00;79.00
6556;DHT22;3311;48.32423000;14.29074500;2023-07-31T01:05:28;22.00;78.70
6556;DHT22;3311;48.32423000;14.29074500;2023-07-31T01:08:03;22.00;78.60
6556;DHT22;3311;48.32423000;14.29074500;2023-07-31T01:10:37;22.00;78.60
6556;DHT22;3311;48.32423000;14.29074500;2023-07-31T01:13:10;22.00;78.30
6556;DHT22;3311;48.32423000;14.29074500;2023-07-31T01:15:37;22.00;77.90
6556;DHT22;3311;48.32423000;14.29074500;2023-07-31T01:18:05;22.10;77.90
6556;DHT22;3311;48.32423000;14.29074500;2023-07-31T01:20:33;22.10;77.60
6556;DHT22;3311;48.32423000;14.29074500;2023-07-31T01:23:28;22.00;77.70
6556;DHT22;3311;48.32423000;14.29074500;2023-07-31T01:26:05;22.00;77.60
6556;DHT22;3311;48.32423000;14.29074500;2023-07-31T01:28:43;22.00;77.60
6556;DHT22;3311;48.32423000;14.29074500;2023-07-31T01:31:16;22.00;77.40
6556;DHT22;3311;48.32423000;14.29074500;2023-07-31T01:33:45;22.00;77.30
6556;DHT22;3311;48.32423000;14.29074500;2023-07-31T01:36:13;22.00;77.20
6556;DHT22;3311;48.32423000;14.29074500;2023-07-31T01:38:41;21.90;77.70
6556;DHT22;3311;48.32423000;14.29074500;2023-07-31T01:41:09;21.90;77.20
6556;DHT22;3311;48.32423000;14.29074500;2023-07-31T01:43:37;22.00;77.10
6556;DHT22;3311;48.32423000;14.29074500;2023-07-31T01:46:04;22.00;76.60
6556;DHT22;3311;48.32423000;14.29074500;2023-07-31T01:48:31;21.90;76.60
6556;DHT22;3311;48.32423000;14.29074500;2023-07-31T01:51:01;21.90;76.70
6556;DHT22;3311;48.32423000;14.29074500;2023-07-31T01:53:31;21.90;76.60
6556;DHT22;3311;48.32423000;14.29074500;2023-07-31T01:55:58;21.90;76.50
6556;DHT22;3311;48.32423000;14.29074500;2023-07-31T01:58:27;21.80;76.30
6556;DHT22;3311;48.32423000;14.29074500;2023-07-31T02:00:54;21.90;77.00
6556;DHT22;3311;48.32423000;14.29074500;2023-07-31T02:03:21;21.80;76.30
6556;DHT22;3311;48.32423000;14.29074500;2023-07-31T02:05:49;21.80;76.10
6556;DHT22;3311;48.32423000;14.29074500;2023-07-31T02:08:17;21.80;76.00
6556;DHT22;3311;48.32423000;14.29074500;2023-07-31T02:10:44;21.80;75.90
6556;DHT22;3311;48.32423000;14.29074500;2023-07-31T02:13:11;21.80;76.00
6556;DHT22;3311;48.32423000;14.29074500;2023-07-31T02:15:40;21.80;75.90
6556;DHT22;3311;48.32423000;14.29074500;2023-07-31T02:18:07;21.80;75.90
6556;DHT22;3311;48.32423000;14.29074500;2023-07-31T02:20:35;21.80;75.90
6556;DHT22;3311;48.32423000;14.29074500;2023-07-31T02:23:02;21.70;75.80
6556;DHT22;3311;48.32423000;14.29074500;2023-07-31T02:25:30;21.80;76.00
6556;DHT22;3311;48.32423000;14.29074500;2023-07-31T02:27:57;21.70;75.70
6556;DHT22;3311;48.32423000;14.29074500;2023-07-31T02:30:24;21.70;75.50
6556;DHT22;3311;48.32423000;14.29074500;2023-07-31T02:32:53;21.70;75.50
6556;DHT22;3311;48.32423000;14.29074500;2023-07-31T02:35:21;21.70;75.60
6556;DHT22;3311;48.32423000;14.29074500;2023-07-31T02:37:48;21.70;75.50
6556;DHT22;3311;48.32423000;14.29074500;2023-07-31T02:40:15;21.70;75.50
6556;DHT22;3311;48.32423000;14.29074500;2023-07-31T02:42:42;21.70;75.50
6556;DHT22;3311;48.32423000;14.29074500;2023-07-31T02:45:10;21.70;75.50
6556;DHT22;3311;48.32423000;14.29074500;2023-07-31T02:47:37;21.60;75.40
6556;DHT22;3311;48.32423000;14.29074500;2023-07-31T02:50:07;21.70;75.50
6556;DHT22;3311;48.32423000;14.29074500;2023-07-31T02:52:34;21.60;75.20
6556;DHT22;3311;48.32423000;14.29074500;2023-07-31T02:55:02;21.60;75.20
6556;DHT22;3311;48.32423000;14.29074500;2023-07-31T02:57:29;21.60;75.40
6556;DHT22;3311;48.32423000;14.29074500;2023-07-31T02:59:57;21.60;75.20
6556;DHT22;3311;48.32423000;14.29074500;2023-07-31T03:02:24;21.60;75.20
6556;DHT22;3311;48.32423000;14.29074500;2023-07-31T03:04:51;21.50;75.10
6556;DHT22;3311;48.32423000;14.29074500;2023-07-31T03:07:20;21.50;74.90
6556;DHT22;3311;48.32423000;14.29074500;2023-07-31T03:09:47;21.50;75.10
6556;DHT22;3311;48.32423000;14.29074500;2023-07-31T03:12:15;21.40;74.80
6556;DHT22;3311;48.32423000;14.29074500;2023-07-31T03:14:42;21.40;74.70
6556;DHT22;3311;48.32423000;14.29074500;2023-07-31T03:17:09;21.50;74.70
6556;DHT22;3311;48.32423000;14.29074500;2023-07-31T03:19:37;21.50;74.70
6556;DHT22;3311;48.32423000;14.29074500;2023-07-31T03:22:05;21.40;74.50
6556;DHT22;3311;48.32423000;14.29074500;2023-07-31T03:24:33;21.40;74.80
6556;DHT22;3311;48.32423000;14.29074500;2023-07-31T03:27:01;21.40;74.40
6556;DHT22;3311;48.32423000;14.29074500;2023-07-31T03:29:28;21.40;74.50
6556;DHT22;3311;48.32423000;14.29074500;2023-07-31T03:31:55;21.40;74.60
6556;DHT22;3311;48.32423000;14.29074500;2023-07-31T03:34:22;21.30;74.40
6556;DHT22;3311;48.32423000;14.29074500;2023-07-31T03:36:50;21.30;74.60
6556;DHT22;3311;48.32423000;14.29074500;2023-07-31T03:39:17;21.30;74.50
6556;DHT22;3311;48.32423000;14.29074500;2023-07-31T03:41:46;21.30;74.50
6556;DHT22;3311;48.32423000;14.29074500;2023-07-31T03:44:13;21.30;74.20
6556;DHT22;3311;48.32423000;14.29074500;2023-07-31T03:46:40;21.30;74.80
6556;DHT22;3311;48.32423000;14.29074500;2023-07-31T03:49:08;21.30;74.40
6556;DHT22;3311;48.32423000;14.29074500;2023-07-31T03:51:35;21.30;74.00
6556;DHT22;3311;48.32423000;14.29074500;2023-07-31T03:54:02;21.20;74.10
6556;DHT22;3311;48.32423000;14.29074500;2023-07-31T03:56:30;21.20;74.10
6556;DHT22;3311;48.32423000;14.29074500;2023-07-31T03:58:58;21.20;74.20
6556;DHT22;3311;48.32423000;14.29074500;2023-07-31T04:01:26;21.20;74.10
6556;DHT22;3311;48.32423000;14.29074500;2023-07-31T04:03:54;21.20;74.10
6556;DHT22;3311;48.32423000;14.29074500;2023-07-31T04:06:21;21.20;74.10
6556;DHT22;3311;48.32423000;14.29074500;2023-07-31T04:08:48;21.30;74.10
6556;DHT22;3311;48.32423000;14.29074500;2023-07-31T04:11:16;21.20;73.70
6556;DHT22;3311;48.32423000;14.29074500;2023-07-31T04:13:43;21.20;73.90
6556;DHT22;3311;48.32423000;14.29074500;2023-07-31T04:16:12;21.20;73.90
6556;DHT22;3311;48.32423000;14.29074500;2023-07-31T04:18:39;21.20;73.80
6556;DHT22;3311;48.32423000;14.29074500;2023-07-31T04:21:06;21.20;73.80
6556;DHT22;3311;48.32423000;14.29074500;2023-07-31T04:23:34;21.20;73.90
6556;DHT22;3311;48.32423000;14.29074500;2023-07-31T04:26:01;21.20;73.80
6556;DHT22;3311;48.32423000;14.29074500;2023-07-31T04:28:28;21.10;73.80
6556;DHT22;3311;48.32423000;14.29074500;2023-07-31T04:30:57;21.10;74.20
6556;DHT22;3311;48.32423000;14.29074500;2023-07-31T04:33:26;21.10;74.10
6556;DHT22;3311;48.32423000;14.29074500;2023-07-31T04:35:54;21.20;74.50
6556;DHT22;3311;48.32423000;14.29074500;2023-07-31T04:38:21;21.10;74.60
6556;DHT22;3311;48.32423000;14.29074500;2023-07-31T04:40:49;21.10;74.50
6556;DHT22;3311;48.32423000;14.29074500;2023-07-31T04:43:16;21.10;74.10
6556;DHT22;3311;48.32423000;14.29074500;2023-07-31T04:45:46;21.10;74.30
6556;DHT22;3311;48.32423000;14.29074500;2023-07-31T04:48:15;21.10;74.40
6556;DHT22;3311;48.32423000;14.29074500;2023-07-31T04:50:44;21.10;74.60
6556;DHT22;3311;48.32423000;14.29074500;2023-07-31T04:53:11;21.30;73.70
6556;DHT22;3311;48.32423000;14.29074500;2023-07-31T04:55:38;21.40;73.00
6556;DHT22;3311;48.32423000;14.29074500;2023-07-31T04:58:05;21.40;72.40
6556;DHT22;3311;48.32423000;14.29074500;2023-07-31T05:00:33;21.40;72.20
6556;DHT22;3311;48.32423000;14.29074500;2023-07-31T05:03:00;21.40;72.10
6556;DHT22;3311;48.32423000;14.29074500;2023-07-31T05:05:27;21.50;72.00
6556;DHT22;3311;48.32423000;14.29074500;2023-07-31T05:07:56;21.50;72.00
6556;DHT22;3311;48.32423000;14.29074500;2023-07-31T05:10:23;21.50;72.00
6556;DHT22;3311;48.32423000;14.29074500;2023-07-31T05:12:50;21.60;71.70
6556;DHT22;3311;48.32423000;14.29074500;2023-07-31T05:15:17;21.70;72.00
6556;DHT22;3311;48.32423000;14.29074500;2023-07-31T05:17:45;21.80;71.40
6556;DHT22;3311;48.32423000;14.29074500;2023-07-31T05:20:12;21.80;72.30
6556;DHT22;3311;48.32423000;14.29074500;2023-07-31T05:22:40;21.90;73.00
6556;DHT22;3311;48.32423000;14.29074500;2023-07-31T05:25:09;21.90;72.70
6556;DHT22;3311;48.32423000;14.29074500;2023-07-31T05:27:36;21.90;72.20
6556;DHT22;3311;48.32423000;14.29074500;2023-07-31T05:30:05;22.00;72.20
6556;DHT22;3311;48.32423000;14.29074500;2023-07-31T05:32:33;22.10;71.70
6556;DHT22;3311;48.32423000;14.29074500;2023-07-31T05:35:01;22.30;71.70
6556;DHT22;3311;48.32423000;14.29074500;2023-07-31T05:37:28;22.40;71.50
6556;DHT22;3311;48.32423000;14.29074500;2023-07-31T05:39:55;22.50;71.10
6556;DHT22;3311;48.32423000;14.29074500;2023-07-31T05:42:24;22.60;71.10
6556;DHT22;3311;48.32423000;14.29074500;2023-07-31T05:44:51;22.70;70.70
6556;DHT22;3311;48.32423000;14.29074500;2023-07-31T05:47:18;22.80;70.50
6556;DHT22;3311;48.32423000;14.29074500;2023-07-31T05:49:46;22.80;69.80
6556;DHT22;3311;48.32423000;14.29074500;2023-07-31T05:52:13;22.90;70.30
6556;DHT22;3311;48.32423000;14.29074500;2023-07-31T05:54:41;23.00;70.00
6556;DHT22;3311;48.32423000;14.29074500;2023-07-31T05:57:09;23.00;69.90
6556;DHT22;3311;48.32423000;14.29074500;2023-07-31T05:59:37;23.10;70.20
6556;DHT22;3311;48.32423000;14.29074500;2023-07-31T06:02:05;23.20;70.00
6556;DHT22;3311;48.32423000;14.29074500;2023-07-31T06:04:33;23.20;69.90
6556;DHT22;3311;48.32423000;14.29074500;2023-07-31T06:07:00;23.30;69.20
6556;DHT22;3311;48.32423000;14.29074500;2023-07-31T06:09:27;23.40;68.80
6556;DHT22;3311;48.32423000;14.29074500;2023-07-31T06:11:54;23.40;69.10
6556;DHT22;3311;48.32423000;14.29074500;2023-07-31T06:14:22;23.40;69.00
6556;DHT22;3311;48.32423000;14.29074500;2023-07-31T06:16:50;23.40;69.30
6556;DHT22;3311;48.32423000;14.29074500;2023-07-31T06:19:18;23.50;69.30
6556;DHT22;3311;48.32423000;14.29074500;2023-07-31T06:21:46;23.50;68.70
6556;DHT22;3311;48.32423000;14.29074500;2023-07-31T06:24:13;23.50;69.80
6556;DHT22;3311;48.32423000;14.29074500;2023-07-31T06:26:44;23.60;69.80
6556;DHT22;3311;48.32423000;14.29074500;2023-07-31T06:29:12;23.60;69.30
6556;DHT22;3311;48.32423000;14.29074500;2023-07-31T06:31:40;23.70;69.20
6556;DHT22;3311;48.32423000;14.29074500;2023-07-31T06:34:09;23.80;69.00
6556;DHT22;3311;48.32423000;14.29074500;2023-07-31T06:36:36;23.80;68.70
6556;DHT22;3311;48.32423000;14.29074500;2023-07-31T06:39:03;23.70;67.70
6556;DHT22;3311;48.32423000;14.29074500;2023-07-31T06:41:31;23.70;68.20
6556;DHT22;3311;48.32423000;14.29074500;2023-07-31T06:43:58;23.70;68.20
6556;DHT22;3311;48.32423000;14.29074500;2023-07-31T06:46:25;23.80;68.90
6556;DHT22;3311;48.32423000;14.29074500;2023-07-31T06:48:52;23.80;69.10
6556;DHT22;3311;48.32423000;14.29074500;2023-07-31T06:51:22;23.90;68.90
6556;DHT22;3311;48.32423000;14.29074500;2023-07-31T06:53:49;23.90;68.50
6556;DHT22;3311;48.32423000;14.29074500;2023-07-31T06:56:16;24.00;68.20
6556;DHT22;3311;48.32423000;14.29074500;2023-07-31T06:58:43;24.00;67.60
6556;DHT22;3311;48.32423000;14.29074500;2023-07-31T07:01:10;24.00;67.40
6556;DHT22;3311;48.32423000;14.29074500;2023-07-31T07:03:38;24.10;67.20
6556;DHT22;3311;48.32423000;14.29074500;2023-07-31T07:06:05;24.10;66.90
6556;DHT22;3311;48.32423000;14.29074500;2023-07-31T07:08:34;24.10;66.80
6556;DHT22;3311;48.32423000;14.29074500;2023-07-31T07:11:01;24.10;66.70
6556;DHT22;3311;48.32423000;14.29074500;2023-07-31T07:13:28;24.20;66.20
6556;DHT22;3311;48.32423000;14.29074500;2023-07-31T07:15:55;24.10;66.40
6556;DHT22;3311;48.32423000;14.29074500;2023-07-31T07:18:22;24.00;66.30
6556;DHT22;3311;48.32423000;14.29074500;2023-07-31T07:20:51;24.00;66.40
6556;DHT22;3311;48.32423000;14.29074500;2023-07-31T07:23:18;23.90;66.20
6556;DHT22;3311;48.32423000;14.29074500;2023-07-31T07:25:47;23.80;66.20
6556;DHT22;3311;48.32423000;14.29074500;2023-07-31T07:28:15;23.80;66.20
6556;DHT22;3311;48.32423000;14.29074500;2023-07-31T07:30:42;23.80;66.30
6556;DHT22;3311;48.32423000;14.29074500;2023-07-31T07:33:09;23.70;66.20
6556;DHT22;3311;48.32423000;14.29074500;2023-07-31T07:35:38;23.70;66.20
6556;DHT22;3311;48.32423000;14.29074500;2023-07-31T07:38:05;23.70;66.20
6556;DHT22;3311;48.32423000;14.29074500;2023-07-31T07:40:32;23.70;65.90
6556;DHT22;3311;48.32423000;14.29074500;2023-07-31T07:43:01;23.80;66.20
6556;DHT22;3311;48.32423000;14.29074500;2023-07-31T07:45:28;23.80;66.10
6556;DHT22;3311;48.32423000;14.29074500;2023-07-31T07:47:55;23.80;65.80
6556;DHT22;3311;48.32423000;14.29074500;2023-07-31T07:50:22;23.90;65.80
6556;DHT22;3311;48.32423000;14.29074500;2023-07-31T07:52:49;23.90;65.50
6556;DHT22;3311;48.32423000;14.29074500;2023-07-31T07:55:17;23.80;65.60
6556;DHT22;3311;48.32423000;14.29074500;2023-07-31T07:57:44;23.80;65.80
6556;DHT22;3311;48.32423000;14.29074500;2023-07-31T08:00:13;23.70;65.60
6556;DHT22;3311;48.32423000;14.29074500;2023-07-31T08:02:40;23.70;65.70
6556;DHT22;3311;48.32423000;14.29074500;2023-07-31T08:05:08;23.70;65.80
6556;DHT22;3311;48.32423000;14.29074500;2023-07-31T08:07:36;23.60;65.60
6556;DHT22;3311;48.32423000;14.29074500;2023-07-31T08:10:03;23.60;65.70
6556;DHT22;3311;48.32423000;14.29074500;2023-07-31T08:12:31;23.60;65.50
6556;DHT22;3311;48.32423000;14.29074500;2023-07-31T08:14:58;23.50;65.50
6556;DHT22;3311;48.32423000;14.29074500;2023-07-31T08:17:28;23.50;65.30
6556;DHT22;3311;48.32423000;14.29074500;2023-07-31T08:19:55;23.50;65.20
6556;DHT22;3311;48.32423000;14.29074500;2023-07-31T08:22:24;23.60;65.40
6556;DHT22;3311;48.32423000;14.29074500;2023-07-31T08:24:52;23.70;65.10
6556;DHT22;3311;48.32423000;14.29074500;2023-07-31T08:27:19;23.70;64.90
6556;DHT22;3311;48.32423000;14.29074500;2023-07-31T08:29:46;23.80;65.00
6556;DHT22;3311;48.32423000;14.29074500;2023-07-31T08:32:13;23.80;64.70
6556;DHT22;3311;48.32423000;14.29074500;2023-07-31T08:34:42;23.70;64.90
6556;DHT22;3311;48.32423000;14.29074500;2023-07-31T08:37:09;23.70;65.00
6556;DHT22;3311;48.32423000;14.29074500;2023-07-31T08:39:37;23.70;65.40
6556;DHT22;3311;48.32423000;14.29074500;2023-07-31T08:42:08;23.60;65.00
6556;DHT22;3311;48.32423000;14.29074500;2023-07-31T08:44:36;23.60;65.80
6556;DHT22;3311;48.32423000;14.29074500;2023-07-31T08:47:05;23.60;65.50
6556;DHT22;3311;48.32423000;14.29074500;2023-07-31T08:49:34;23.60;65.60
6556;DHT22;3311;48.32423000;14.29074500;2023-07-31T08:52:03;23.60;65.80
6556;DHT22;3311;48.32423000;14.29074500;2023-07-31T08:54:31;23.60;65.90
6556;DHT22;3311;48.32423000;14.29074500;2023-07-31T08:56:59;23.60;65.50
6556;DHT22;3311;48.32423000;14.29074500;2023-07-31T08:59:29;23.60;65.10
6556;DHT22;3311;48.32423000;14.29074500;2023-07-31T09:02:01;23.60;65.60
6556;DHT22;3311;48.32423000;14.29074500;2023-07-31T09:04:32;23.60;65.50
6556;DHT22;3311;48.32423000;14.29074500;2023-07-31T09:07:03;23.60;65.50
6556;DHT22;3311;48.32423000;14.29074500;2023-07-31T09:09:31;23.60;65.40
6556;DHT22;3311;48.32423000;14.29074500;2023-07-31T09:11:58;23.60;65.40
6556;DHT22;3311;48.32423000;14.29074500;2023-07-31T09:14:25;23.60;65.90
6556;DHT22;3311;48.32423000;14.29074500;2023-07-31T09:16:54;23.60;65.40
6556;DHT22;3311;48.32423000;14.29074500;2023-07-31T09:19:26;23.60;65.70
6556;DHT22;3311;48.32423000;14.29074500;2023-07-31T09:21:54;23.60;65.50
6556;DHT22;3311;48.32423000;14.29074500;2023-07-31T09:24:30;23.60;65.50
6556;DHT22;3311;48.32423000;14.29074500;2023-07-31T09:26:58;23.70;65.60
6556;DHT22;3311;48.32423000;14.29074500;2023-07-31T09:29:27;23.70;65.30
6556;DHT22;3311;48.32423000;14.29074500;2023-07-31T09:31:54;23.70;65.30
6556;DHT22;3311;48.32423000;14.29074500;2023-07-31T09:34:29;23.70;65.30
6556;DHT22;3311;48.32423000;14.29074500;2023-07-31T09:37:01;23.80;65.30
6556;DHT22;3311;48.32423000;14.29074500;2023-07-31T09:39:30;23.80;65.20
6556;DHT22;3311;48.32423000;14.29074500;2023-07-31T09:41:58;23.80;65.40
6556;DHT22;3311;48.32423000;14.29074500;2023-07-31T09:44:38;23.80;65.20
6556;DHT22;3311;48.32423000;14.29074500;2023-07-31T09:47:07;23.80;65.40
6556;DHT22;3311;48.32423000;14.29074500;2023-07-31T09:49:47;23.80;65.40
6556;DHT22;3311;48.32423000;14.29074500;2023-07-31T09:52:15;23.80;65.40
6556;DHT22;3311;48.32423000;14.29074500;2023-07-31T09:54:43;23.80;65.30
6556;DHT22;3311;48.32423000;14.29074500;2023-07-31T09:57:11;23.80;65.30
6556;DHT22;3311;48.32423000;14.29074500;2023-07-31T09:59:39;23.90;65.40
6556;DHT22;3311;48.32423000;14.29074500;2023-07-31T10:02:09;23.90;65.20
6556;DHT22;3311;48.32423000;14.29074500;2023-07-31T10:04:43;23.90;65.20
6556;DHT22;3311;48.32423000;14.29074500;2023-07-31T10:07:11;23.80;65.20
6556;DHT22;3311;48.32423000;14.29074500;2023-07-31T10:09:39;23.80;65.10
6556;DHT22;3311;48.32423000;14.29074500;2023-07-31T10:12:12;23.80;65.30
6556;DHT22;3311;48.32423000;14.29074500;2023-07-31T10:14:41;23.80;65.20
6556;DHT22;3311;48.32423000;14.29074500;2023-07-31T10:17:09;23.80;65.50
6556;DHT22;3311;48.32423000;14.29074500;2023-07-31T10:19:38;23.80;65.50
6556;DHT22;3311;48.32423000;14.29074500;2023-07-31T10:22:06;23.80;65.40
6556;DHT22;3311;48.32423000;14.29074500;2023-07-31T10:24:34;23.80;65.40
6556;DHT22;3311;48.32423000;14.29074500;2023-07-31T10:27:02;23.70;65.30
6556;DHT22;3311;48.32423000;14.29074500;2023-07-31T10:29:33;23.70;65.40
6556;DHT22;3311;48.32423000;14.29074500;2023-07-31T10:32:02;23.80;65.40
6556;DHT22;3311;48.32423000;14.29074500;2023-07-31T10:34:33;23.70;65.30
6556;DHT22;3311;48.32423000;14.29074500;2023-07-31T10:37:22;23.80;65.40
6556;DHT22;3311;48.32423000;14.29074500;2023-07-31T10:39:58;23.80;65.10
6556;DHT22;3311;48.32423000;14.29074500;2023-07-31T10:42:33;23.80;65.10
6556;DHT22;3311;48.32423000;14.29074500;2023-07-31T10:45:04;23.80;64.80
6556;DHT22;3311;48.32423000;14.29074500;2023-07-31T10:47:37;23.80;64.80
6556;DHT22;3311;48.32423000;14.29074500;2023-07-31T10:50:17;23.80;64.80
6556;DHT22;3311;48.32423000;14.29074500;2023-07-31T10:52:48;23.80;64.80
6556;DHT22;3311;48.32423000;14.29074500;2023-07-31T10:55:24;23.80;64.90
6556;DHT22;3311;48.32423000;14.29074500;2023-07-31T10:57:51;23.70;64.90
6556;DHT22;3311;48.32423000;14.29074500;2023-07-31T11:00:22;23.70;64.90
6556;DHT22;3311;48.32423000;14.29074500;2023-07-31T11:03:00;23.70;64.70
6556;DHT22;3311;48.32423000;14.29074500;2023-07-31T11:05:44;23.80;64.70
6556;DHT22;3311;48.32423000;14.29074500;2023-07-31T11:08:17;23.80;64.50
6556;DHT22;3311;48.32423000;14.29074500;2023-07-31T11:10:45;23.80;64.60
6556;DHT22;3311;48.32423000;14.29074500;2023-07-31T11:13:14;23.80;64.70
6556;DHT22;3311;48.32423000;14.29074500;2023-07-31T11:15:42;23.80;64.80
6556;DHT22;3311;48.32423000;14.29074500;2023-07-31T11:18:10;23.80;64.90
6556;DHT22;3311;48.32423000;14.29074500;2023-07-31T11:20:38;23.70;63.80
6556;DHT22;3311;48.32423000;14.29074500;2023-07-31T11:23:08;23.70;62.70
6556;DHT22;3311;48.32423000;14.29074500;2023-07-31T11:25:36;23.70;63.10
6556;DHT22;3311;48.32423000;14.29074500;2023-07-31T11:28:07;23.70;63.20
6556;DHT22;3311;48.32423000;14.29074500;2023-07-31T11:30:35;23.70;63.30
6556;DHT22;3311;48.32423000;14.29074500;2023-07-31T11:33:05;23.70;63.40
6556;DHT22;3311;48.32423000;14.29074500;2023-07-31T11:35:34;23.70;63.60
6556;DHT22;3311;48.32423000;14.29074500;2023-07-31T11:38:02;23.70;63.50
6556;DHT22;3311;48.32423000;14.29074500;2023-07-31T11:40:29;23.70;63.60
6556;DHT22;3311;48.32423000;14.29074500;2023-07-31T11:42:57;23.80;63.70
6556;DHT22;3311;48.32423000;14.29074500;2023-07-31T11:45:26;23.80;63.60
6556;DHT22;3311;48.32423000;14.29074500;2023-07-31T11:47:55;23.80;63.70
6556;DHT22;3311;48.32423000;14.29074500;2023-07-31T11:50:24;23.80;63.70
6556;DHT22;3311;48.32423000;14.29074500;2023-07-31T11:52:55;23.80;63.70
6556;DHT22;3311;48.32423000;14.29074500;2023-07-31T11:55:24;23.80;63.80
6556;DHT22;3311;48.32423000;14.29074500;2023-07-31T11:57:54;23.80;63.90
6556;DHT22;3311;48.32423000;14.29074500;2023-07-31T12:00:22;23.80;63.80
6556;DHT22;3311;48.32423000;14.29074500;2023-07-31T12:02:51;23.80;63.80
6556;DHT22;3311;48.32423000;14.29074500;2023-07-31T12:05:18;23.80;63.90
6556;DHT22;3311;48.32423000;14.29074500;2023-07-31T12:07:49;23.80;64.10
6556;DHT22;3311;48.32423000;14.29074500;2023-07-31T12:10:27;23.80;64.10
6556;DHT22;3311;48.32423000;14.29074500;2023-07-31T12:13:02;23.70;64.20
6556;DHT22;3311;48.32423000;14.29074500;2023-07-31T12:15:37;23.70;64.20
6556;DHT22;3311;48.32423000;14.29074500;2023-07-31T12:18:06;23.70;64.30
6556;DHT22;3311;48.32423000;14.29074500;2023-07-31T12:20:35;23.70;64.40
6556;DHT22;3311;48.32423000;14.29074500;2023-07-31T12:23:03;23.70;64.40
6556;DHT22;3311;48.32423000;14.29074500;2023-07-31T12:25:32;23.70;64.40
6556;DHT22;3311;48.32423000;14.29074500;2023-07-31T12:28:06;23.70;64.30
6556;DHT22;3311;48.32423000;14.29074500;2023-07-31T12:30:38;23.70;64.20
6556;DHT22;3311;48.32423000;14.29074500;2023-07-31T12:33:12;23.70;64.20
6556;DHT22;3311;48.32423000;14.29074500;2023-07-31T12:35:43;23.70;64.20
6556;DHT22;3311;48.32423000;14.29074500;2023-07-31T12:38:13;23.70;64.20
6556;DHT22;3311;48.32423000;14.29074500;2023-07-31T12:40:41;23.70;64.20
6556;DHT22;3311;48.32423000;14.29074500;2023-07-31T12:43:08;23.70;64.30
6556;DHT22;3311;48.32423000;14.29074500;2023-07-31T12:45:36;23.70;64.30
6556;DHT22;3311;48.32423000;14.29074500;2023-07-31T12:48:04;23.70;64.40
6556;DHT22;3311;48.32423000;14.29074500;2023-07-31T12:50:31;23.70;64.40
6556;DHT22;3311;48.32423000;14.29074500;2023-07-31T12:52:59;23.70;64.30
6556;DHT22;3311;48.32423000;14.29074500;2023-07-31T12:55:27;23.70;64.40
6556;DHT22;3311;48.32423000;14.29074500;2023-07-31T12:57:55;23.70;64.50
6556;DHT22;3311;48.32423000;14.29074500;2023-07-31T13:00:23;23.70;64.50
6556;DHT22;3311;48.32423000;14.29074500;2023-07-31T13:02:51;23.70;64.70
6556;DHT22;3311;48.32423000;14.29074500;2023-07-31T13:05:18;23.70;64.60
6556;DHT22;3311;48.32423000;14.29074500;2023-07-31T13:07:46;23.70;64.50
6556;DHT22;3311;48.32423000;14.29074500;2023-07-31T13:10:14;23.70;64.50
6556;DHT22;3311;48.32423000;14.29074500;2023-07-31T13:12:43;23.70;64.70
6556;DHT22;3311;48.32423000;14.29074500;2023-07-31T13:15:10;23.70;64.70
6556;DHT22;3311;48.32423000;14.29074500;2023-07-31T13:17:38;23.70;64.60
6556;DHT22;3311;48.32423000;14.29074500;2023-07-31T13:20:06;23.70;64.60
6556;DHT22;3311;48.32423000;14.29074500;2023-07-31T13:22:34;23.70;64.60
6556;DHT22;3311;48.32423000;14.29074500;2023-07-31T13:25:01;23.70;64.70
6556;DHT22;3311;48.32423000;14.29074500;2023-07-31T13:27:28;23.70;64.70
6556;DHT22;3311;48.32423000;14.29074500;2023-07-31T13:29:57;23.70;64.70
6556;DHT22;3311;48.32423000;14.29074500;2023-07-31T13:32:24;23.70;64.70
6556;DHT22;3311;48.32423000;14.29074500;2023-07-31T13:34:51;23.70;64.70
6556;DHT22;3311;48.32423000;14.29074500;2023-07-31T13:37:19;23.70;64.70
6556;DHT22;3311;48.32423000;14.29074500;2023-07-31T13:39:46;23.70;64.70
6556;DHT22;3311;48.32423000;14.29074500;2023-07-31T13:42:13;23.70;64.70